This is the latest recevied weather packets stored in our database for station/object W4HIX-2. If no packets are shown the sender has not sent any weather packets the latest 10 day(s).
| Time | Temp. | Humidity | Pressure | Rain* | Wind** | Luminosity | Snow |
|---|---|---|---|---|---|---|---|
| 1777263056 | 22.78° C | 89% | 1013.2 hPa | 0 mm | - | - | - |
| 1777260616 | 22.78° C | 88% | 1013.1 hPa | 0 mm | - | - | - |
| 1777260016 | 22.78° C | 88% | 1013 hPa | 0 mm | - | - | - |
| 1777252816 | 23.33° C | 85% | 1012.1 hPa | 0 mm | - | - | - |
| 1777251036 | 23.33° C | 83% | 1012.1 hPa | 0 mm | - | - | - |
| 1777246815 | 23.89° C | 82% | 1011.6 hPa | 0 mm | - | - | - |
| 1777245056 | 24.44° C | 80% | 1011.6 hPa | 0 mm | - | - | - |
| 1777244415 | 25° C | 80% | 1011.6 hPa | 0 mm | - | - | - |
| 1777234215 | 26.67° C | 76% | 1011.8 hPa | 0 mm | - | - | - |
| 1777230017 | 26.11° C | 81% | 1012.3 hPa | 0 mm | - | - | - |
| 1777228217 | 25.56° C | 82% | 1012.4 hPa | 0 mm | - | - | - |
| 1777225217 | 26.11° C | 80% | 1012.5 hPa | 0 mm | - | - | - |
| 1777224617 | 25.56° C | 81% | 1012.6 hPa | 0 mm | - | - | - |
| 1777220417 | 25.56° C | 83% | 1012.9 hPa | 0 mm | - | - | - |
| 1777219837 | 26.11° C | 81% | 1012.9 hPa | 0 mm | - | - | - |
| 1777219217 | 26.11° C | 81% | 1012.9 hPa | 0 mm | - | - | - |
| 1777213817 | 25.56° C | 82% | 1012.9 hPa | 0 mm | - | - | - |
| 1777207816 | 23.89° C | 89% | 1012.7 hPa | 0 mm | - | - | - |
| 1777205416 | 23.33° C | 93% | 1012.3 hPa | 0 mm | - | - | - |
| 1777204857 | 23.33° C | 93% | 1012.3 hPa | 0 mm | - | - | - |
| 1777204216 | 23.33° C | 94% | 1012.1 hPa | 0 mm | - | - | - |
| 1777203616 | 22.78° C | 94% | 1012 hPa | 0 mm | - | - | - |
| 1777203037 | 22.78° C | 95% | 1011.8 hPa | 0 mm | - | - | - |
| 1777202416 | 22.78° C | 95% | 1011.9 hPa | 0 mm | - | - | - |
| 1777192816 | 22.22° C | 95% | 1010.4 hPa | 0 mm | - | - | - |
* Rain latest hour (hover to see other rain measurements)
** Current wind speed in m/s (hover to see current wind gust speed)